sensor_id;sensor_type;location;lat;lon;timestamp;temperature;humidity
9941;DHT22;5009;50.656;7.188;2023-03-11T05:02:47;1.80;99.30
9941;DHT22;5009;50.656;7.188;2023-03-11T05:05:13;1.80;99.90
9941;DHT22;5009;50.656;7.188;2023-03-11T05:07:38;1.70;99.90
9941;DHT22;5009;50.656;7.188;2023-03-11T05:10:05;1.70;99.50
9941;DHT22;5009;50.656;7.188;2023-03-11T05:12:31;1.80;99.70
9941;DHT22;5009;50.656;7.188;2023-03-11T05:14:56;1.70;99.90
9941;DHT22;5009;50.656;7.188;2023-03-11T05:17:22;1.60;99.90
9941;DHT22;5009;50.656;7.188;2023-03-11T05:19:49;1.60;99.90
9941;DHT22;5009;50.656;7.188;2023-03-11T05:22:15;1.60;99.90
9941;DHT22;5009;50.656;7.188;2023-03-11T05:24:40;1.60;99.90
9941;DHT22;5009;50.656;7.188;2023-03-11T05:27:06;1.60;99.90
9941;DHT22;5009;50.656;7.188;2023-03-11T05:29:32;1.60;99.90
9941;DHT22;5009;50.656;7.188;2023-03-11T05:31:57;1.60;99.90
9941;DHT22;5009;50.656;7.188;2023-03-11T05:34:23;1.60;99.90
9941;DHT22;5009;50.656;7.188;2023-03-11T05:36:48;1.60;99.90
9941;DHT22;5009;50.656;7.188;2023-03-11T05:39:14;1.60;99.90
9941;DHT22;5009;50.656;7.188;2023-03-11T05:41:40;1.50;99.90
9941;DHT22;5009;50.656;7.188;2023-03-11T05:44:06;1.60;99.90
9941;DHT22;5009;50.656;7.188;2023-03-11T05:46:31;1.50;99.90
9941;DHT22;5009;50.656;7.188;2023-03-11T05:49:00;1.50;99.90
9941;DHT22;5009;50.656;7.188;2023-03-11T05:51:26;1.50;99.90
9941;DHT22;5009;50.656;7.188;2023-03-11T05:53:52;1.40;99.90
9941;DHT22;5009;50.656;7.188;2023-03-11T05:56:19;1.50;99.90
9941;DHT22;5009;50.656;7.188;2023-03-11T05:58:45;1.40;99.90
9941;DHT22;5009;50.656;7.188;2023-03-11T06:01:13;1.40;99.90
9941;DHT22;5009;50.656;7.188;2023-03-11T06:03:39;1.50;99.90
9941;DHT22;5009;50.656;7.188;2023-03-11T06:06:07;1.50;99.90
9941;DHT22;5009;50.656;7.188;2023-03-11T06:08:34;1.50;99.90
9941;DHT22;5009;50.656;7.188;2023-03-11T06:11:08;1.50;99.90
9941;DHT22;5009;50.656;7.188;2023-03-11T06:13:34;1.50;99.90
9941;DHT22;5009;50.656;7.188;2023-03-11T06:16:00;1.50;99.90
9941;DHT22;5009;50.656;7.188;2023-03-11T06:18:26;1.50;99.90
9941;DHT22;5009;50.656;7.188;2023-03-11T06:20:53;1.60;99.90
9941;DHT22;5009;50.656;7.188;2023-03-11T06:23:19;1.60;99.90
9941;DHT22;5009;50.656;7.188;2023-03-11T06:25:57;1.70;99.90
9941;DHT22;5009;50.656;7.188;2023-03-11T06:28:22;1.90;99.90
9941;DHT22;5009;50.656;7.188;2023-03-11T06:30:48;2.00;99.90
9941;DHT22;5009;50.656;7.188;2023-03-11T06:33:14;2.20;99.90
9941;DHT22;5009;50.656;7.188;2023-03-11T06:35:40;2.30;99.90
9941;DHT22;5009;50.656;7.188;2023-03-11T06:38:05;2.60;99.90
9941;DHT22;5009;50.656;7.188;2023-03-11T06:40:31;2.80;99.40
9941;DHT22;5009;50.656;7.188;2023-03-11T06:42:57;3.00;98.40
9941;DHT22;5009;50.656;7.188;2023-03-11T06:45:23;3.30;97.60
9941;DHT22;5009;50.656;7.188;2023-03-11T06:47:49;3.60;96.40
9941;DHT22;5009;50.656;7.188;2023-03-11T06:50:15;3.90;95.10
9941;DHT22;5009;50.656;7.188;2023-03-11T06:52:40;4.30;94.10
9941;DHT22;5009;50.656;7.188;2023-03-11T06:55:06;4.60;93.50
9941;DHT22;5009;50.656;7.188;2023-03-11T06:57:32;5.00;92.50
9941;DHT22;5009;50.656;7.188;2023-03-11T06:59:58;5.50;91.70
9941;DHT22;5009;50.656;7.188;2023-03-11T07:02:23;5.90;90.70
9941;DHT22;5009;50.656;7.188;2023-03-11T07:04:49;6.10;89.50
9941;DHT22;5009;50.656;7.188;2023-03-11T07:07:15;6.20;88.80
9941;DHT22;5009;50.656;7.188;2023-03-11T07:09:41;6.20;88.90
9941;DHT22;5009;50.656;7.188;2023-03-11T07:12:08;6.20;88.60
9941;DHT22;5009;50.656;7.188;2023-03-11T07:14:33;6.60;88.30
9941;DHT22;5009;50.656;7.188;2023-03-11T07:16:59;6.80;86.80
9941;DHT22;5009;50.656;7.188;2023-03-11T07:19:25;6.80;86.50
9941;DHT22;5009;50.656;7.188;2023-03-11T07:21:50;6.70;85.20
9941;DHT22;5009;50.656;7.188;2023-03-11T07:24:16;6.60;85.90
9941;DHT22;5009;50.656;7.188;2023-03-11T07:26:42;6.50;86.20
9941;DHT22;5009;50.656;7.188;2023-03-11T07:29:08;6.40;86.10
9941;DHT22;5009;50.656;7.188;2023-03-11T07:31:35;6.30;86.00
9941;DHT22;5009;50.656;7.188;2023-03-11T07:34:03;6.30;86.80
9941;DHT22;5009;50.656;7.188;2023-03-11T07:36:29;6.40;86.80
9941;DHT22;5009;50.656;7.188;2023-03-11T07:38:58;6.40;86.20
9941;DHT22;5009;50.656;7.188;2023-03-11T07:41:25;6.60;86.50
9941;DHT22;5009;50.656;7.188;2023-03-11T07:43:54;6.70;85.80
9941;DHT22;5009;50.656;7.188;2023-03-11T07:46:21;6.70;85.40
9941;DHT22;5009;50.656;7.188;2023-03-11T07:48:48;6.60;85.40
9941;DHT22;5009;50.656;7.188;2023-03-11T07:53:45;6.50;85.70
9941;DHT22;5009;50.656;7.188;2023-03-11T07:56:13;6.50;85.90
9941;DHT22;5009;50.656;7.188;2023-03-11T07:58:39;6.50;86.00
9941;DHT22;5009;50.656;7.188;2023-03-11T08:01:10;6.50;85.60
9941;DHT22;5009;50.656;7.188;2023-03-11T08:03:37;6.60;85.50
9941;DHT22;5009;50.656;7.188;2023-03-11T08:06:10;6.80;85.60
9941;DHT22;5009;50.656;7.188;2023-03-11T08:08:36;7.00;85.70
9941;DHT22;5009;50.656;7.188;2023-03-11T08:11:02;7.20;85.80
9941;DHT22;5009;50.656;7.188;2023-03-11T08:13:28;7.60;85.40
9941;DHT22;5009;50.656;7.188;2023-03-11T08:15:54;8.00;84.40
9941;DHT22;5009;50.656;7.188;2023-03-11T08:18:19;8.50;83.60
9941;DHT22;5009;50.656;7.188;2023-03-11T08:20:45;9.40;82.00
9941;DHT22;5009;50.656;7.188;2023-03-11T08:23:10;10.60;77.80
9941;DHT22;5009;50.656;7.188;2023-03-11T08:25:39;11.80;73.80
9941;DHT22;5009;50.656;7.188;2023-03-11T08:28:05;13.00;72.80
9941;DHT22;5009;50.656;7.188;2023-03-11T08:30:32;14.00;67.60
9941;DHT22;5009;50.656;7.188;2023-03-11T08:32:58;14.70;62.70
9941;DHT22;5009;50.656;7.188;2023-03-11T08:35:24;15.30;59.30
9941;DHT22;5009;50.656;7.188;2023-03-11T08:37:50;15.40;56.80
9941;DHT22;5009;50.656;7.188;2023-03-11T08:40:16;15.00;55.60
9941;DHT22;5009;50.656;7.188;2023-03-11T08:42:42;14.20;56.10
9941;DHT22;5009;50.656;7.188;2023-03-11T08:45:08;13.70;55.90
9941;DHT22;5009;50.656;7.188;2023-03-11T08:47:35;13.40;56.10
9941;DHT22;5009;50.656;7.188;2023-03-11T08:50:01;12.90;56.10
9941;DHT22;5009;50.656;7.188;2023-03-11T08:52:27;12.60;57.60
9941;DHT22;5009;50.656;7.188;2023-03-11T08:54:52;12.10;58.10
9941;DHT22;5009;50.656;7.188;2023-03-11T08:57:18;11.80;59.60
9941;DHT22;5009;50.656;7.188;2023-03-11T08:59:43;11.60;58.60
9941;DHT22;5009;50.656;7.188;2023-03-11T09:02:09;11.20;59.10
9941;DHT22;5009;50.656;7.188;2023-03-11T09:04:35;11.10;59.00
9941;DHT22;5009;50.656;7.188;2023-03-11T09:07:01;10.80;58.40
9941;DHT22;5009;50.656;7.188;2023-03-11T09:09:26;10.40;57.40
9941;DHT22;5009;50.656;7.188;2023-03-11T09:11:52;10.30;57.70
9941;DHT22;5009;50.656;7.188;2023-03-11T09:14:18;10.20;57.50
9941;DHT22;5009;50.656;7.188;2023-03-11T09:16:43;10.40;57.60
9941;DHT22;5009;50.656;7.188;2023-03-11T09:19:09;10.60;58.50
9941;DHT22;5009;50.656;7.188;2023-03-11T09:21:36;10.50;57.30
9941;DHT22;5009;50.656;7.188;2023-03-11T09:24:02;10.40;57.50
9941;DHT22;5009;50.656;7.188;2023-03-11T09:26:29;10.10;57.10
9941;DHT22;5009;50.656;7.188;2023-03-11T09:28:55;10.10;57.40
9941;DHT22;5009;50.656;7.188;2023-03-11T09:31:21;9.80;56.90
9941;DHT22;5009;50.656;7.188;2023-03-11T09:33:47;9.70;57.80
9941;DHT22;5009;50.656;7.188;2023-03-11T09:36:16;9.70;58.00
9941;DHT22;5009;50.656;7.188;2023-03-11T09:38:42;9.00;57.30
9941;DHT22;5009;50.656;7.188;2023-03-11T09:52:51;8.30;55.10
9941;DHT22;5009;50.656;7.188;2023-03-11T09:55:36;8.40;55.80
9941;DHT22;5009;50.656;7.188;2023-03-11T09:58:33;8.50;55.10
9941;DHT22;5009;50.656;7.188;2023-03-11T10:00:54;8.40;55.30
9941;DHT22;5009;50.656;7.188;2023-03-11T10:03:34;8.40;55.30
9941;DHT22;5009;50.656;7.188;2023-03-11T10:08:45;8.30;55.50
9941;DHT22;5009;50.656;7.188;2023-03-11T10:11:36;8.20;54.80
9941;DHT22;5009;50.656;7.188;2023-03-11T10:17:21;7.80;55.20
9941;DHT22;5009;50.656;7.188;2023-03-11T10:20:08;7.80;55.70
9941;DHT22;5009;50.656;7.188;2023-03-11T10:25:46;7.60;55.50
9941;DHT22;5009;50.656;7.188;2023-03-11T10:28:19;7.30;55.70
9941;DHT22;5009;50.656;7.188;2023-03-11T10:33:38;7.30;56.50
9941;DHT22;5009;50.656;7.188;2023-03-11T10:36:10;7.40;56.00
9941;DHT22;5009;50.656;7.188;2023-03-11T10:38:41;7.60;56.40
9941;DHT22;5009;50.656;7.188;2023-03-11T10:43:59;7.80;56.40
9941;DHT22;5009;50.656;7.188;2023-03-11T10:46:27;8.10;56.80
9941;DHT22;5009;50.656;7.188;2023-03-11T10:48:53;8.30;57.20
9941;DHT22;5009;50.656;7.188;2023-03-11T10:51:36;8.40;57.20
9941;DHT22;5009;50.656;7.188;2023-03-11T10:54:03;8.60;57.00
9941;DHT22;5009;50.656;7.188;2023-03-11T10:56:39;8.60;57.40
9941;DHT22;5009;50.656;7.188;2023-03-11T10:59:22;8.60;57.60
9941;DHT22;5009;50.656;7.188;2023-03-11T11:02:00;8.70;57.30
9941;DHT22;5009;50.656;7.188;2023-03-11T11:04:35;8.60;56.70
9941;DHT22;5009;50.656;7.188;2023-03-11T11:09:46;8.60;56.60
9941;DHT22;5009;50.656;7.188;2023-03-11T11:12:14;8.70;56.00
9941;DHT22;5009;50.656;7.188;2023-03-11T11:14:52;8.70;55.90
9941;DHT22;5009;50.656;7.188;2023-03-11T11:19:54;8.50;54.20
9941;DHT22;5009;50.656;7.188;2023-03-11T11:22:23;8.40;54.10
9941;DHT22;5009;50.656;7.188;2023-03-11T11:24:51;8.50;55.10
9941;DHT22;5009;50.656;7.188;2023-03-11T11:27:25;8.50;54.80
9941;DHT22;5009;50.656;7.188;2023-03-11T11:30:24;8.60;54.70
9941;DHT22;5009;50.656;7.188;2023-03-11T11:32:50;8.60;55.10
9941;DHT22;5009;50.656;7.188;2023-03-11T11:35:22;8.60;54.30
9941;DHT22;5009;50.656;7.188;2023-03-11T11:37:54;8.40;53.40
9941;DHT22;5009;50.656;7.188;2023-03-11T11:40:27;8.60;53.80
9941;DHT22;5009;50.656;7.188;2023-03-11T11:43:04;8.60;53.30
9941;DHT22;5009;50.656;7.188;2023-03-11T11:45:43;8.80;54.30
9941;DHT22;5009;50.656;7.188;2023-03-11T11:50:51;9.00;53.10
9941;DHT22;5009;50.656;7.188;2023-03-11T11:55:52;9.20;53.70
9941;DHT22;5009;50.656;7.188;2023-03-11T11:58:19;9.10;53.20
9941;DHT22;5009;50.656;7.188;2023-03-11T12:06:00;8.60;51.70
9941;DHT22;5009;50.656;7.188;2023-03-11T12:08:38;8.80;51.60
9941;DHT22;5009;50.656;7.188;2023-03-11T12:11:08;8.80;51.40
9941;DHT22;5009;50.656;7.188;2023-03-11T12:14:06;8.90;51.40
9941;DHT22;5009;50.656;7.188;2023-03-11T12:16:41;8.80;51.30
9941;DHT22;5009;50.656;7.188;2023-03-11T12:29:54;8.60;55.60
9941;DHT22;5009;50.656;7.188;2023-03-11T12:32:35;8.70;55.20
9941;DHT22;5009;50.656;7.188;2023-03-11T12:35:23;8.90;55.10
9941;DHT22;5009;50.656;7.188;2023-03-11T12:40:47;9.00;54.70
9941;DHT22;5009;50.656;7.188;2023-03-11T12:50:55;8.70;54.20
9941;DHT22;5009;50.656;7.188;2023-03-11T12:53:46;8.80;55.00
9941;DHT22;5009;50.656;7.188;2023-03-11T13:03:10;8.50;54.10
9941;DHT22;5009;50.656;7.188;2023-03-11T13:10:45;8.80;54.00
9941;DHT22;5009;50.656;7.188;2023-03-11T13:18:39;9.00;53.70
9941;DHT22;5009;50.656;7.188;2023-03-11T13:27:21;9.00;53.00
9941;DHT22;5009;50.656;7.188;2023-03-11T13:29:55;9.10;53.40
9941;DHT22;5009;50.656;7.188;2023-03-11T13:41:13;9.30;52.90
9941;DHT22;5009;50.656;7.188;2023-03-11T13:43:45;9.20;52.50
9941;DHT22;5009;50.656;7.188;2023-03-11T13:46:29;9.10;52.50
9941;DHT22;5009;50.656;7.188;2023-03-11T13:49:30;9.00;52.00
9941;DHT22;5009;50.656;7.188;2023-03-11T13:51:54;8.80;51.70
9941;DHT22;5009;50.656;7.188;2023-03-11T13:54:43;8.70;51.40
9941;DHT22;5009;50.656;7.188;2023-03-11T13:57:23;8.80;52.40
9941;DHT22;5009;50.656;7.188;2023-03-11T13:59:56;8.70;51.80
9941;DHT22;5009;50.656;7.188;2023-03-11T14:02:25;8.70;51.40
9941;DHT22;5009;50.656;7.188;2023-03-11T14:04:57;8.70;51.60
9941;DHT22;5009;50.656;7.188;2023-03-11T14:07:27;8.70;52.20
9941;DHT22;5009;50.656;7.188;2023-03-11T14:12:44;8.60;51.90
9941;DHT22;5009;50.656;7.188;2023-03-11T14:15:26;8.30;51.90
9941;DHT22;5009;50.656;7.188;2023-03-11T14:17:52;8.30;52.00
9941;DHT22;5009;50.656;7.188;2023-03-11T14:20:19;8.30;52.10
9941;DHT22;5009;50.656;7.188;2023-03-11T14:22:49;8.30;52.10
9941;DHT22;5009;50.656;7.188;2023-03-11T14:25:23;8.30;52.20
9941;DHT22;5009;50.656;7.188;2023-03-11T14:30:23;8.20;52.10
9941;DHT22;5009;50.656;7.188;2023-03-11T14:33:00;7.90;51.90
9941;DHT22;5009;50.656;7.188;2023-03-11T14:35:26;7.90;52.10
9941;DHT22;5009;50.656;7.188;2023-03-11T14:37:52;7.90;52.30
9941;DHT22;5009;50.656;7.188;2023-03-11T14:42:49;7.80;51.80
9941;DHT22;5009;50.656;7.188;2023-03-11T14:45:20;7.70;51.90
9941;DHT22;5009;50.656;7.188;2023-03-11T14:50:32;7.60;51.00
9941;DHT22;5009;50.656;7.188;2023-03-11T14:53:13;7.40;51.50
9941;DHT22;5009;50.656;7.188;2023-03-11T14:56:11;7.40;51.20
9941;DHT22;5009;50.656;7.188;2023-03-11T14:59:17;7.20;50.30
9941;DHT22;5009;50.656;7.188;2023-03-11T15:01:46;6.90;50.40
9941;DHT22;5009;50.656;7.188;2023-03-11T15:04:47;7.00;51.00
9941;DHT22;5009;50.656;7.188;2023-03-11T15:07:08;6.90;51.60
9941;DHT22;5009;50.656;7.188;2023-03-11T15:09:38;6.90;51.10
9941;DHT22;5009;50.656;7.188;2023-03-11T15:12:06;7.00;50.80
9941;DHT22;5009;50.656;7.188;2023-03-11T15:14:33;6.90;51.00
9941;DHT22;5009;50.656;7.188;2023-03-11T15:17:22;6.90;51.20
9941;DHT22;5009;50.656;7.188;2023-03-11T15:19:55;7.00;51.40
9941;DHT22;5009;50.656;7.188;2023-03-11T15:22:38;7.10;52.00
9941;DHT22;5009;50.656;7.188;2023-03-11T15:25:32;7.10;52.20
9941;DHT22;5009;50.656;7.188;2023-03-11T15:28:27;7.10;52.60
9941;DHT22;5009;50.656;7.188;2023-03-11T15:31:13;7.10;52.70
9941;DHT22;5009;50.656;7.188;2023-03-11T15:33:39;7.10;52.90
9941;DHT22;5009;50.656;7.188;2023-03-11T15:36:05;7.10;52.90
9941;DHT22;5009;50.656;7.188;2023-03-11T15:38:31;7.20;52.70
9941;DHT22;5009;50.656;7.188;2023-03-11T15:41:01;7.20;52.70
9941;DHT22;5009;50.656;7.188;2023-03-11T15:43:44;7.20;52.90
9941;DHT22;5009;50.656;7.188;2023-03-11T15:46:11;7.20;52.70
9941;DHT22;5009;50.656;7.188;2023-03-11T15:48:36;7.20;52.60
9941;DHT22;5009;50.656;7.188;2023-03-11T15:51:02;7.20;52.80
9941;DHT22;5009;50.656;7.188;2023-03-11T15:53:29;7.20;52.80
9941;DHT22;5009;50.656;7.188;2023-03-11T15:56:01;7.20;52.90
9941;DHT22;5009;50.656;7.188;2023-03-11T15:58:29;7.20;53.00
9941;DHT22;5009;50.656;7.188;2023-03-11T16:00:56;7.20;53.10
9941;DHT22;5009;50.656;7.188;2023-03-11T16:03:22;7.20;53.00
9941;DHT22;5009;50.656;7.188;2023-03-11T16:05:48;7.20;53.00
9941;DHT22;5009;50.656;7.188;2023-03-11T16:08:14;7.20;53.00
9941;DHT22;5009;50.656;7.188;2023-03-11T16:10:41;7.20;52.80
9941;DHT22;5009;50.656;7.188;2023-03-11T16:13:13;7.20;52.90
9941;DHT22;5009;50.656;7.188;2023-03-11T16:15:39;7.20;53.00
9941;DHT22;5009;50.656;7.188;2023-03-11T16:18:05;7.20;53.00
9941;DHT22;5009;50.656;7.188;2023-03-11T16:20:41;7.20;52.90
9941;DHT22;5009;50.656;7.188;2023-03-11T16:23:34;7.20;52.70
9941;DHT22;5009;50.656;7.188;2023-03-11T16:26:02;7.00;52.60
9941;DHT22;5009;50.656;7.188;2023-03-11T16:28:28;7.10;52.50
9941;DHT22;5009;50.656;7.188;2023-03-11T16:30:54;7.10;52.20
9941;DHT22;5009;50.656;7.188;2023-03-11T16:33:20;7.00;52.10
9941;DHT22;5009;50.656;7.188;2023-03-11T16:35:45;7.00;52.20
9941;DHT22;5009;50.656;7.188;2023-03-11T16:38:11;6.90;52.30
9941;DHT22;5009;50.656;7.188;2023-03-11T16:40:37;6.80;52.50
9941;DHT22;5009;50.656;7.188;2023-03-11T16:43:10;6.70;52.70
9941;DHT22;5009;50.656;7.188;2023-03-11T16:45:37;6.60;52.80
9941;DHT22;5009;50.656;7.188;2023-03-11T16:48:04;6.50;52.50
9941;DHT22;5009;50.656;7.188;2023-03-11T16:50:30;6.50;52.70
9941;DHT22;5009;50.656;7.188;2023-03-11T16:52:57;6.50;52.50
9941;DHT22;5009;50.656;7.188;2023-03-11T16:55:24;6.40;52.50
9941;DHT22;5009;50.656;7.188;2023-03-11T16:57:50;6.40;52.90
9941;DHT22;5009;50.656;7.188;2023-03-11T17:00:16;6.40;52.90
9941;DHT22;5009;50.656;7.188;2023-03-11T17:02:43;6.30;52.60
9941;DHT22;5009;50.656;7.188;2023-03-11T17:05:09;6.20;52.80
9941;DHT22;5009;50.656;7.188;2023-03-11T17:07:35;6.20;53.40
9941;DHT22;5009;50.656;7.188;2023-03-11T17:10:01;6.10;53.80
9941;DHT22;5009;50.656;7.188;2023-03-11T17:12:27;6.00;54.10
9941;DHT22;5009;50.656;7.188;2023-03-11T17:14:53;6.00;54.30
9941;DHT22;5009;50.656;7.188;2023-03-11T17:17:20;6.00;54.70
9941;DHT22;5009;50.656;7.188;2023-03-11T17:19:46;6.00;55.20
9941;DHT22;5009;50.656;7.188;2023-03-11T17:22:12;5.90;55.50
9941;DHT22;5009;50.656;7.188;2023-03-11T17:24:38;5.90;55.90
9941;DHT22;5009;50.656;7.188;2023-03-11T17:27:04;5.80;56.50
9941;DHT22;5009;50.656;7.188;2023-03-11T17:29:30;5.80;57.70
9941;DHT22;5009;50.656;7.188;2023-03-11T17:31:55;5.70;58.40
9941;DHT22;5009;50.656;7.188;2023-03-11T17:34:21;5.60;58.90
9941;DHT22;5009;50.656;7.188;2023-03-11T17:36:47;5.60;59.50
9941;DHT22;5009;50.656;7.188;2023-03-11T17:39:12;5.50;59.90
9941;DHT22;5009;50.656;7.188;2023-03-11T17:41:38;5.40;61.10
9941;DHT22;5009;50.656;7.188;2023-03-11T17:44:04;5.30;63.10
9941;DHT22;5009;50.656;7.188;2023-03-11T17:46:31;5.20;63.70
9941;DHT22;5009;50.656;7.188;2023-03-11T17:48:57;5.10;64.40
9941;DHT22;5009;50.656;7.188;2023-03-11T17:51:24;5.00;65.90
9941;DHT22;5009;50.656;7.188;2023-03-11T17:53:52;4.90;66.70
9941;DHT22;5009;50.656;7.188;2023-03-11T17:56:18;4.80;67.70
9941;DHT22;5009;50.656;7.188;2023-03-11T17:58:48;4.70;68.00
9941;DHT22;5009;50.656;7.188;2023-03-11T18:01:20;4.70;68.90
9941;DHT22;5009;50.656;7.188;2023-03-11T18:03:46;4.60;69.90
9941;DHT22;5009;50.656;7.188;2023-03-11T18:06:13;4.50;72.20
9941;DHT22;5009;50.656;7.188;2023-03-11T18:08:39;4.40;71.80
9941;DHT22;5009;50.656;7.188;2023-03-11T18:11:07;4.40;71.80
9941;DHT22;5009;50.656;7.188;2023-03-11T18:13:34;4.30;73.70
9941;DHT22;5009;50.656;7.188;2023-03-11T18:16:08;4.30;74.90
9941;DHT22;5009;50.656;7.188;2023-03-11T18:18:35;4.20;75.20
9941;DHT22;5009;50.656;7.188;2023-03-11T18:21:02;4.20;76.50
9941;DHT22;5009;50.656;7.188;2023-03-11T18:23:29;4.10;77.40
9941;DHT22;5009;50.656;7.188;2023-03-11T18:25:58;4.00;78.90
9941;DHT22;5009;50.656;7.188;2023-03-11T18:28:23;4.00;80.30
9941;DHT22;5009;50.656;7.188;2023-03-11T18:30:49;3.90;81.00
9941;DHT22;5009;50.656;7.188;2023-03-11T18:33:14;3.80;82.00
9941;DHT22;5009;50.656;7.188;2023-03-11T18:35:40;3.80;82.20
9941;DHT22;5009;50.656;7.188;2023-03-11T18:38:06;3.70;82.30
9941;DHT22;5009;50.656;7.188;2023-03-11T18:40:31;3.60;83.20
9941;DHT22;5009;50.656;7.188;2023-03-11T18:42:57;3.50;84.70
9941;DHT22;5009;50.656;7.188;2023-03-11T18:45:22;3.20;86.40
9941;DHT22;5009;50.656;7.188;2023-03-11T18:47:49;3.20;88.30
9941;DHT22;5009;50.656;7.188;2023-03-11T18:50:15;3.10;89.00
9941;DHT22;5009;50.656;7.188;2023-03-11T18:52:40;3.20;89.40
9941;DHT22;5009;50.656;7.188;2023-03-11T18:55:06;3.20;89.80
9941;DHT22;5009;50.656;7.188;2023-03-11T18:57:32;3.20;90.10
9941;DHT22;5009;50.656;7.188;2023-03-11T18:59:57;3.10;90.20
9941;DHT22;5009;50.656;7.188;2023-03-11T19:02:23;3.10;90.30
9941;DHT22;5009;50.656;7.188;2023-03-11T19:04:50;3.00;90.50
9941;DHT22;5009;50.656;7.188;2023-03-11T19:07:16;3.00;90.60
9941;DHT22;5009;50.656;7.188;2023-03-11T19:09:41;2.90;90.80
9941;DHT22;5009;50.656;7.188;2023-03-11T19:12:07;2.80;91.10
9941;DHT22;5009;50.656;7.188;2023-03-11T19:14:32;2.70;91.30
9941;DHT22;5009;50.656;7.188;2023-03-11T19:16:58;2.70;91.30
9941;DHT22;5009;50.656;7.188;2023-03-11T19:19:23;2.60;91.70
9941;DHT22;5009;50.656;7.188;2023-03-11T19:21:49;2.60;91.90
9941;DHT22;5009;50.656;7.188;2023-03-11T19:24:15;2.60;92.10
9941;DHT22;5009;50.656;7.188;2023-03-11T19:26:40;2.60;92.10
9941;DHT22;5009;50.656;7.188;2023-03-11T19:29:07;2.60;92.30
9941;DHT22;5009;50.656;7.188;2023-03-11T19:31:33;2.60;92.40
9941;DHT22;5009;50.656;7.188;2023-03-11T19:33:59;2.50;92.60
9941;DHT22;5009;50.656;7.188;2023-03-11T19:36:24;2.50;92.90
9941;DHT22;5009;50.656;7.188;2023-03-11T19:38:51;2.40;93.10
9941;DHT22;5009;50.656;7.188;2023-03-11T19:41:18;2.40;93.40
9941;DHT22;5009;50.656;7.188;2023-03-11T19:43:45;2.30;93.60
9941;DHT22;5009;50.656;7.188;2023-03-11T19:46:16;2.30;93.70
9941;DHT22;5009;50.656;7.188;2023-03-11T19:48:43;2.30;93.90
9941;DHT22;5009;50.656;7.188;2023-03-11T19:51:08;2.20;94.20
9941;DHT22;5009;50.656;7.188;2023-03-11T19:53:35;2.20;94.10
9941;DHT22;5009;50.656;7.188;2023-03-11T19:56:01;2.20;94.20
9941;DHT22;5009;50.656;7.188;2023-03-11T19:58:29;2.20;94.30
9941;DHT22;5009;50.656;7.188;2023-03-11T20:00:55;2.10;94.40
9941;DHT22;5009;50.656;7.188;2023-03-11T20:03:21;2.10;94.60
9941;DHT22;5009;50.656;7.188;2023-03-11T20:05:48;2.00;94.90
9941;DHT22;5009;50.656;7.188;2023-03-11T20:08:16;2.00;95.30
9941;DHT22;5009;50.656;7.188;2023-03-11T20:10:44;2.00;95.20
9941;DHT22;5009;50.656;7.188;2023-03-11T20:13:10;2.00;95.20
9941;DHT22;5009;50.656;7.188;2023-03-11T20:15:36;2.00;95.00
9941;DHT22;5009;50.656;7.188;2023-03-11T20:18:03;2.00;95.00
9941;DHT22;5009;50.656;7.188;2023-03-11T20:20:30;1.90;95.30
9941;DHT22;5009;50.656;7.188;2023-03-11T20:22:55;1.80;96.00
9941;DHT22;5009;50.656;7.188;2023-03-11T20:25:22;1.80;96.20
9941;DHT22;5009;50.656;7.188;2023-03-11T20:27:49;1.70;96.60
9941;DHT22;5009;50.656;7.188;2023-03-11T20:30:15;1.80;96.50
9941;DHT22;5009;50.656;7.188;2023-03-11T20:32:47;1.80;96.40
9941;DHT22;5009;50.656;7.188;2023-03-11T20:35:12;1.80;96.70
9941;DHT22;5009;50.656;7.188;2023-03-11T20:37:42;1.70;96.90
9941;DHT22;5009;50.656;7.188;2023-03-11T20:40:08;1.70;97.00
9941;DHT22;5009;50.656;7.188;2023-03-11T20:42:34;1.80;97.00
9941;DHT22;5009;50.656;7.188;2023-03-11T20:45:00;1.80;97.10
9941;DHT22;5009;50.656;7.188;2023-03-11T20:47:25;1.70;97.10
9941;DHT22;5009;50.656;7.188;2023-03-11T20:49:51;1.60;97.70
9941;DHT22;5009;50.656;7.188;2023-03-11T20:52:17;1.60;97.90
9941;DHT22;5009;50.656;7.188;2023-03-11T20:54:43;1.60;98.10
9941;DHT22;5009;50.656;7.188;2023-03-11T20:57:08;1.60;98.40
9941;DHT22;5009;50.656;7.188;2023-03-11T20:59:34;1.60;98.60
9941;DHT22;5009;50.656;7.188;2023-03-11T21:02:00;1.60;98.40
9941;DHT22;5009;50.656;7.188;2023-03-11T21:04:25;1.60;98.20
9941;DHT22;5009;50.656;7.188;2023-03-11T21:06:51;1.50;98.50
9941;DHT22;5009;50.656;7.188;2023-03-11T21:09:17;1.50;98.50
9941;DHT22;5009;50.656;7.188;2023-03-11T21:11:43;1.50;98.90
9941;DHT22;5009;50.656;7.188;2023-03-11T21:14:09;1.40;99.10
9941;DHT22;5009;50.656;7.188;2023-03-11T21:16:35;1.40;99.50
9941;DHT22;5009;50.656;7.188;2023-03-11T21:19:02;1.40;99.40
9941;DHT22;5009;50.656;7.188;2023-03-11T21:21:30;1.40;99.70
9941;DHT22;5009;50.656;7.188;2023-03-11T21:23:56;1.40;99.60
9941;DHT22;5009;50.656;7.188;2023-03-11T21:26:22;1.40;99.80
9941;DHT22;5009;50.656;7.188;2023-03-11T21:28:48;1.40;99.80
9941;DHT22;5009;50.656;7.188;2023-03-11T21:31:21;1.30;99.90
9941;DHT22;5009;50.656;7.188;2023-03-11T21:33:48;1.20;99.90
9941;DHT22;5009;50.656;7.188;2023-03-11T21:36:16;1.20;99.90
9941;DHT22;5009;50.656;7.188;2023-03-11T21:38:42;1.20;99.90
9941;DHT22;5009;50.656;7.188;2023-03-11T21:41:14;1.10;99.90
9941;DHT22;5009;50.656;7.188;2023-03-11T21:43:41;1.20;99.90
9941;DHT22;5009;50.656;7.188;2023-03-11T21:46:08;1.20;99.90
9941;DHT22;5009;50.656;7.188;2023-03-11T21:48:34;1.10;99.90
9941;DHT22;5009;50.656;7.188;2023-03-11T21:51:00;1.10;99.90
9941;DHT22;5009;50.656;7.188;2023-03-11T21:53:26;1.10;99.90
9941;DHT22;5009;50.656;7.188;2023-03-11T21:55:51;1.00;99.90
9941;DHT22;5009;50.656;7.188;2023-03-11T21:58:17;1.00;99.90
